sensor_id;sensor_type;location;lat;lon;timestamp;P1;durP1;ratioP1;P2;durP2;ratioP2
48596;SDS011;34382;43.160;24.148;2022-12-18T00:01:18;22.17;;;13.63;;
48596;SDS011;34382;43.160;24.148;2022-12-18T00:02:55;24.02;;;14.13;;
48596;SDS011;34382;43.160;24.148;2022-12-18T00:04:27;23.52;;;13.73;;
48596;SDS011;34382;43.160;24.148;2022-12-18T00:05:59;19.73;;;12.50;;
48596;SDS011;34382;43.160;24.148;2022-12-18T00:07:32;17.40;;;10.57;;
48596;SDS011;34382;43.160;24.148;2022-12-18T00:09:04;17.95;;;9.70;;
48596;SDS011;34382;43.160;24.148;2022-12-18T00:10:36;15.50;;;8.27;;
48596;SDS011;34382;43.160;24.148;2022-12-18T00:12:08;15.20;;;9.00;;
48596;SDS011;34382;43.160;24.148;2022-12-18T00:13:46;15.93;;;9.38;;
48596;SDS011;34382;43.160;24.148;2022-12-18T00:15:18;16.98;;;10.55;;
48596;SDS011;34382;43.160;24.148;2022-12-18T00:16:50;16.98;;;9.75;;
48596;SDS011;34382;43.160;24.148;2022-12-18T00:18:22;15.98;;;9.15;;
48596;SDS011;34382;43.160;24.148;2022-12-18T00:19:54;14.82;;;9.13;;
48596;SDS011;34382;43.160;24.148;2022-12-18T00:21:27;17.10;;;10.35;;
48596;SDS011;34382;43.160;24.148;2022-12-18T00:23:03;15.77;;;8.98;;
48596;SDS011;34382;43.160;24.148;2022-12-18T00:24:35;16.33;;;8.90;;
48596;SDS011;34382;43.160;24.148;2022-12-18T00:26:10;16.55;;;9.55;;
48596;SDS011;34382;43.160;24.148;2022-12-18T00:27:46;16.40;;;9.18;;
48596;SDS011;34382;43.160;24.148;2022-12-18T00:29:19;19.60;;;10.07;;
48596;SDS011;34382;43.160;24.148;2022-12-18T00:30:51;18.55;;;10.07;;
48596;SDS011;34382;43.160;24.148;2022-12-18T00:32:34;18.13;;;10.00;;
48596;SDS011;34382;43.160;24.148;2022-12-18T00:34:06;18.00;;;9.52;;
48596;SDS011;34382;43.160;24.148;2022-12-18T00:35:38;15.93;;;9.43;;
48596;SDS011;34382;43.160;24.148;2022-12-18T00:37:10;18.58;;;11.07;;
48596;SDS011;34382;43.160;24.148;2022-12-18T00:38:50;20.60;;;11.70;;
48596;SDS011;34382;43.160;24.148;2022-12-18T00:40:22;21.50;;;11.73;;
48596;SDS011;34382;43.160;24.148;2022-12-18T00:41:54;22.27;;;12.43;;
48596;SDS011;34382;43.160;24.148;2022-12-18T00:43:45;20.20;;;10.90;;
48596;SDS011;34382;43.160;24.148;2022-12-18T00:45:17;20.17;;;10.98;;
48596;SDS011;34382;43.160;24.148;2022-12-18T00:46:49;17.63;;;10.07;;
48596;SDS011;34382;43.160;24.148;2022-12-18T00:48:21;17.83;;;9.95;;
48596;SDS011;34382;43.160;24.148;2022-12-18T00:49:53;19.13;;;10.07;;
48596;SDS011;34382;43.160;24.148;2022-12-18T00:51:25;18.10;;;10.00;;
48596;SDS011;34382;43.160;24.148;2022-12-18T00:52:58;19.05;;;10.70;;
48596;SDS011;34382;43.160;24.148;2022-12-18T00:54:30;17.77;;;10.25;;
48596;SDS011;34382;43.160;24.148;2022-12-18T00:56:02;18.65;;;10.45;;
48596;SDS011;34382;43.160;24.148;2022-12-18T00:59:08;18.10;;;10.95;;
48596;SDS011;34382;43.160;24.148;2022-12-18T01:00:41;16.75;;;10.18;;
48596;SDS011;34382;43.160;24.148;2022-12-18T01:02:13;16.13;;;10.05;;
48596;SDS011;34382;43.160;24.148;2022-12-18T01:03:46;17.75;;;11.15;;
48596;SDS011;34382;43.160;24.148;2022-12-18T01:05:18;16.38;;;10.43;;
48596;SDS011;34382;43.160;24.148;2022-12-18T01:06:50;18.23;;;9.55;;
48596;SDS011;34382;43.160;24.148;2022-12-18T01:08:22;17.20;;;10.20;;
48596;SDS011;34382;43.160;24.148;2022-12-18T01:09:54;16.05;;;9.18;;
48596;SDS011;34382;43.160;24.148;2022-12-18T01:11:26;18.70;;;10.38;;
48596;SDS011;34382;43.160;24.148;2022-12-18T01:12:58;18.92;;;10.32;;
48596;SDS011;34382;43.160;24.148;2022-12-18T01:14:30;19.25;;;11.95;;
48596;SDS011;34382;43.160;24.148;2022-12-18T01:16:03;23.40;;;13.65;;
48596;SDS011;34382;43.160;24.148;2022-12-18T01:17:35;22.25;;;12.80;;
48596;SDS011;34382;43.160;24.148;2022-12-18T01:19:07;20.67;;;11.80;;
48596;SDS011;34382;43.160;24.148;2022-12-18T01:20:39;19.45;;;11.57;;
48596;SDS011;34382;43.160;24.148;2022-12-18T01:22:11;18.75;;;10.85;;
48596;SDS011;34382;43.160;24.148;2022-12-18T01:23:43;20.17;;;10.70;;
48596;SDS011;34382;43.160;24.148;2022-12-18T01:25:15;17.92;;;10.75;;
48596;SDS011;34382;43.160;24.148;2022-12-18T01:26:47;18.08;;;10.77;;
48596;SDS011;34382;43.160;24.148;2022-12-18T01:28:19;18.70;;;10.65;;
48596;SDS011;34382;43.160;24.148;2022-12-18T01:29:51;19.88;;;10.68;;
48596;SDS011;34382;43.160;24.148;2022-12-18T01:31:24;16.00;;;9.85;;
48596;SDS011;34382;43.160;24.148;2022-12-18T01:33:01;19.45;;;11.43;;
48596;SDS011;34382;43.160;24.148;2022-12-18T01:34:34;16.38;;;9.55;;
48596;SDS011;34382;43.160;24.148;2022-12-18T01:36:07;18.33;;;10.73;;
48596;SDS011;34382;43.160;24.148;2022-12-18T01:37:43;20.63;;;11.20;;
48596;SDS011;34382;43.160;24.148;2022-12-18T01:39:15;19.15;;;10.75;;
48596;SDS011;34382;43.160;24.148;2022-12-18T01:40:47;20.02;;;10.80;;
48596;SDS011;34382;43.160;24.148;2022-12-18T01:42:19;21.00;;;11.05;;
48596;SDS011;34382;43.160;24.148;2022-12-18T01:43:55;17.85;;;9.93;;
48596;SDS011;34382;43.160;24.148;2022-12-18T01:45:29;16.48;;;9.20;;
48596;SDS011;34382;43.160;24.148;2022-12-18T01:48:34;17.58;;;9.45;;
48596;SDS011;34382;43.160;24.148;2022-12-18T01:51:45;20.40;;;10.70;;
48596;SDS011;34382;43.160;24.148;2022-12-18T01:53:18;18.63;;;10.27;;
48596;SDS011;34382;43.160;24.148;2022-12-18T01:54:52;20.00;;;10.50;;
48596;SDS011;34382;43.160;24.148;2022-12-18T01:56:25;19.58;;;9.63;;
48596;SDS011;34382;43.160;24.148;2022-12-18T01:57:57;16.88;;;9.52;;
48596;SDS011;34382;43.160;24.148;2022-12-18T01:59:31;17.13;;;10.40;;
48596;SDS011;34382;43.160;24.148;2022-12-18T02:01:04;17.65;;;9.80;;
48596;SDS011;34382;43.160;24.148;2022-12-18T02:02:36;18.33;;;10.20;;
48596;SDS011;34382;43.160;24.148;2022-12-18T02:04:26;18.10;;;11.07;;
48596;SDS011;34382;43.160;24.148;2022-12-18T02:07:46;21.05;;;11.63;;
48596;SDS011;34382;43.160;24.148;2022-12-18T02:09:29;21.92;;;12.55;;
48596;SDS011;34382;43.160;24.148;2022-12-18T02:13:03;21.48;;;12.00;;
48596;SDS011;34382;43.160;24.148;2022-12-18T02:16:54;21.13;;;11.80;;
48596;SDS011;34382;43.160;24.148;2022-12-18T02:18:37;21.67;;;13.05;;
48596;SDS011;34382;43.160;24.148;2022-12-18T02:27:09;20.98;;;11.63;;
48596;SDS011;34382;43.160;24.148;2022-12-18T02:28:43;20.50;;;11.48;;
48596;SDS011;34382;43.160;24.148;2022-12-18T02:30:19;18.35;;;11.32;;
48596;SDS011;34382;43.160;24.148;2022-12-18T02:31:51;18.52;;;11.30;;
48596;SDS011;34382;43.160;24.148;2022-12-18T02:33:25;19.55;;;10.80;;
48596;SDS011;34382;43.160;24.148;2022-12-18T02:34:59;17.45;;;10.93;;
48596;SDS011;34382;43.160;24.148;2022-12-18T02:36:33;19.40;;;10.57;;
48596;SDS011;34382;43.160;24.148;2022-12-18T02:38:07;17.75;;;10.45;;
48596;SDS011;34382;43.160;24.148;2022-12-18T02:39:40;17.60;;;10.73;;
48596;SDS011;34382;43.160;24.148;2022-12-18T02:41:14;18.45;;;10.98;;
48596;SDS011;34382;43.160;24.148;2022-12-18T02:42:46;15.38;;;9.60;;
48596;SDS011;34382;43.160;24.148;2022-12-18T02:44:18;18.00;;;9.88;;
48596;SDS011;34382;43.160;24.148;2022-12-18T02:45:52;18.67;;;10.30;;
48596;SDS011;34382;43.160;24.148;2022-12-18T02:47:29;17.50;;;10.50;;
48596;SDS011;34382;43.160;24.148;2022-12-18T02:49:09;18.63;;;9.65;;
48596;SDS011;34382;43.160;24.148;2022-12-18T02:50:48;17.13;;;10.15;;
48596;SDS011;34382;43.160;24.148;2022-12-18T02:54:16;17.50;;;10.55;;
48596;SDS011;34382;43.160;24.148;2022-12-18T02:56:12;14.88;;;8.82;;
48596;SDS011;34382;43.160;24.148;2022-12-18T02:57:51;19.17;;;10.15;;
48596;SDS011;34382;43.160;24.148;2022-12-18T03:00:00;16.83;;;9.15;;
48596;SDS011;34382;43.160;24.148;2022-12-18T03:01:26;17.60;;;9.57;;
48596;SDS011;34382;43.160;24.148;2022-12-18T03:05:01;16.67;;;9.45;;
48596;SDS011;34382;43.160;24.148;2022-12-18T03:06:36;16.90;;;10.43;;
48596;SDS011;34382;43.160;24.148;2022-12-18T03:08:24;17.98;;;10.68;;
48596;SDS011;34382;43.160;24.148;2022-12-18T03:09:59;17.88;;;10.05;;
48596;SDS011;34382;43.160;24.148;2022-12-18T03:11:32;17.50;;;10.20;;
48596;SDS011;34382;43.160;24.148;2022-12-18T03:13:28;16.98;;;10.38;;
48596;SDS011;34382;43.160;24.148;2022-12-18T03:16:48;18.20;;;9.93;;
48596;SDS011;34382;43.160;24.148;2022-12-18T03:18:35;17.60;;;10.63;;
48596;SDS011;34382;43.160;24.148;2022-12-18T03:20:11;17.35;;;10.30;;
48596;SDS011;34382;43.160;24.148;2022-12-18T03:21:46;20.48;;;11.80;;
48596;SDS011;34382;43.160;24.148;2022-12-18T03:23:24;18.02;;;10.45;;
48596;SDS011;34382;43.160;24.148;2022-12-18T03:24:59;17.77;;;10.30;;
48596;SDS011;34382;43.160;24.148;2022-12-18T03:26:34;19.88;;;10.98;;
48596;SDS011;34382;43.160;24.148;2022-12-18T03:28:09;23.70;;;11.35;;
48596;SDS011;34382;43.160;24.148;2022-12-18T03:29:48;22.42;;;10.70;;
48596;SDS011;34382;43.160;24.148;2022-12-18T03:31:25;19.33;;;11.57;;
48596;SDS011;34382;43.160;24.148;2022-12-18T03:33:05;23.85;;;11.80;;
48596;SDS011;34382;43.160;24.148;2022-12-18T03:34:42;17.90;;;10.90;;
48596;SDS011;34382;43.160;24.148;2022-12-18T03:36:16;19.50;;;11.45;;
48596;SDS011;34382;43.160;24.148;2022-12-18T03:37:48;19.17;;;10.68;;
48596;SDS011;34382;43.160;24.148;2022-12-18T03:39:20;21.30;;;11.85;;
48596;SDS011;34382;43.160;24.148;2022-12-18T03:42:50;16.27;;;10.10;;
48596;SDS011;34382;43.160;24.148;2022-12-18T03:44:28;23.90;;;10.60;;
48596;SDS011;34382;43.160;24.148;2022-12-18T03:46:17;20.67;;;12.05;;
48596;SDS011;34382;43.160;24.148;2022-12-18T03:49:46;18.77;;;10.73;;
48596;SDS011;34382;43.160;24.148;2022-12-18T03:52:24;18.67;;;10.85;;
48596;SDS011;34382;43.160;24.148;2022-12-18T03:55:32;23.20;;;12.40;;
48596;SDS011;34382;43.160;24.148;2022-12-18T03:57:09;21.25;;;12.23;;
48596;SDS011;34382;43.160;24.148;2022-12-18T03:58:45;21.25;;;11.43;;
48596;SDS011;34382;43.160;24.148;2022-12-18T04:00:18;20.40;;;11.82;;
48596;SDS011;34382;43.160;24.148;2022-12-18T04:01:51;21.98;;;13.02;;
48596;SDS011;34382;43.160;24.148;2022-12-18T04:03:24;24.52;;;13.35;;
48596;SDS011;34382;43.160;24.148;2022-12-18T04:04:57;22.17;;;12.65;;
48596;SDS011;34382;43.160;24.148;2022-12-18T04:06:31;20.02;;;11.85;;
48596;SDS011;34382;43.160;24.148;2022-12-18T04:08:06;20.50;;;12.48;;
48596;SDS011;34382;43.160;24.148;2022-12-18T04:09:39;23.00;;;13.15;;
48596;SDS011;34382;43.160;24.148;2022-12-18T04:11:12;23.30;;;13.20;;
48596;SDS011;34382;43.160;24.148;2022-12-18T04:12:44;22.15;;;12.50;;
48596;SDS011;34382;43.160;24.148;2022-12-18T04:14:16;22.65;;;12.00;;
48596;SDS011;34382;43.160;24.148;2022-12-18T04:15:48;23.70;;;12.73;;
48596;SDS011;34382;43.160;24.148;2022-12-18T04:17:21;24.13;;;12.95;;
48596;SDS011;34382;43.160;24.148;2022-12-18T04:18:53;22.05;;;12.57;;
48596;SDS011;34382;43.160;24.148;2022-12-18T04:20:26;24.60;;;13.88;;
48596;SDS011;34382;43.160;24.148;2022-12-18T04:21:58;22.73;;;13.65;;
48596;SDS011;34382;43.160;24.148;2022-12-18T04:23:30;22.08;;;13.32;;
48596;SDS011;34382;43.160;24.148;2022-12-18T04:25:02;19.77;;;12.52;;
48596;SDS011;34382;43.160;24.148;2022-12-18T04:26:34;22.27;;;12.93;;
48596;SDS011;34382;43.160;24.148;2022-12-18T04:28:06;24.00;;;13.52;;
48596;SDS011;34382;43.160;24.148;2022-12-18T04:29:38;22.40;;;13.48;;
48596;SDS011;34382;43.160;24.148;2022-12-18T04:31:10;23.73;;;13.57;;
48596;SDS011;34382;43.160;24.148;2022-12-18T04:32:43;25.52;;;13.45;;
48596;SDS011;34382;43.160;24.148;2022-12-18T04:34:22;25.45;;;15.10;;
48596;SDS011;34382;43.160;24.148;2022-12-18T04:35:54;31.02;;;16.30;;
48596;SDS011;34382;43.160;24.148;2022-12-18T04:37:26;35.03;;;18.60;;
48596;SDS011;34382;43.160;24.148;2022-12-18T04:38:58;27.67;;;16.63;;
48596;SDS011;34382;43.160;24.148;2022-12-18T04:40:30;26.33;;;14.95;;
48596;SDS011;34382;43.160;24.148;2022-12-18T04:42:02;26.77;;;14.05;;
48596;SDS011;34382;43.160;24.148;2022-12-18T04:43:34;26.88;;;14.75;;
48596;SDS011;34382;43.160;24.148;2022-12-18T04:45:07;23.17;;;14.75;;
48596;SDS011;34382;43.160;24.148;2022-12-18T04:46:39;27.85;;;14.60;;
48596;SDS011;34382;43.160;24.148;2022-12-18T04:48:11;24.38;;;13.60;;
48596;SDS011;34382;43.160;24.148;2022-12-18T04:49:44;24.02;;;13.68;;
48596;SDS011;34382;43.160;24.148;2022-12-18T04:51:15;21.77;;;12.68;;
48596;SDS011;34382;43.160;24.148;2022-12-18T04:52:54;21.52;;;12.95;;
48596;SDS011;34382;43.160;24.148;2022-12-18T04:54:28;24.45;;;14.15;;
48596;SDS011;34382;43.160;24.148;2022-12-18T04:56:06;25.38;;;14.57;;
48596;SDS011;34382;43.160;24.148;2022-12-18T04:57:39;21.98;;;13.60;;
48596;SDS011;34382;43.160;24.148;2022-12-18T04:59:13;21.65;;;12.93;;
48596;SDS011;34382;43.160;24.148;2022-12-18T05:00:45;24.38;;;14.35;;
48596;SDS011;34382;43.160;24.148;2022-12-18T05:02:17;26.33;;;15.75;;
48596;SDS011;34382;43.160;24.148;2022-12-18T05:03:50;27.42;;;16.35;;
48596;SDS011;34382;43.160;24.148;2022-12-18T05:05:23;24.77;;;15.68;;
48596;SDS011;34382;43.160;24.148;2022-12-18T05:06:55;23.90;;;14.98;;
48596;SDS011;34382;43.160;24.148;2022-12-18T05:08:27;23.67;;;14.68;;
48596;SDS011;34382;43.160;24.148;2022-12-18T05:09:59;24.52;;;14.60;;
48596;SDS011;34382;43.160;24.148;2022-12-18T05:11:31;26.92;;;15.65;;
48596;SDS011;34382;43.160;24.148;2022-12-18T05:13:03;27.17;;;15.70;;
48596;SDS011;34382;43.160;24.148;2022-12-18T05:14:35;23.25;;;13.95;;
48596;SDS011;34382;43.160;24.148;2022-12-18T05:16:08;25.08;;;14.98;;
48596;SDS011;34382;43.160;24.148;2022-12-18T05:17:40;26.00;;;15.65;;
48596;SDS011;34382;43.160;24.148;2022-12-18T05:19:12;29.58;;;18.98;;
48596;SDS011;34382;43.160;24.148;2022-12-18T05:20:44;30.00;;;17.77;;
48596;SDS011;34382;43.160;24.148;2022-12-18T05:22:16;28.33;;;17.05;;
48596;SDS011;34382;43.160;24.148;2022-12-18T05:23:49;24.52;;;16.48;;
48596;SDS011;34382;43.160;24.148;2022-12-18T05:25:21;27.17;;;16.27;;
48596;SDS011;34382;43.160;24.148;2022-12-18T05:26:54;27.25;;;16.92;;
48596;SDS011;34382;43.160;24.148;2022-12-18T05:28:27;28.42;;;18.17;;
48596;SDS011;34382;43.160;24.148;2022-12-18T05:30:00;26.33;;;16.35;;
48596;SDS011;34382;43.160;24.148;2022-12-18T05:31:32;25.55;;;14.60;;
48596;SDS011;34382;43.160;24.148;2022-12-18T05:33:10;22.67;;;13.73;;
48596;SDS011;34382;43.160;24.148;2022-12-18T05:34:42;20.35;;;13.18;;
48596;SDS011;34382;43.160;24.148;2022-12-18T05:36:14;22.90;;;14.55;;
48596;SDS011;34382;43.160;24.148;2022-12-18T05:37:46;20.67;;;12.88;;
48596;SDS011;34382;43.160;24.148;2022-12-18T05:39:18;23.45;;;15.45;;
48596;SDS011;34382;43.160;24.148;2022-12-18T05:40:50;25.23;;;15.63;;
48596;SDS011;34382;43.160;24.148;2022-12-18T05:42:23;24.70;;;15.35;;
48596;SDS011;34382;43.160;24.148;2022-12-18T05:43:55;26.90;;;16.10;;
48596;SDS011;34382;43.160;24.148;2022-12-18T05:45:27;27.70;;;16.45;;
48596;SDS011;34382;43.160;24.148;2022-12-18T05:46:59;30.20;;;17.92;;
48596;SDS011;34382;43.160;24.148;2022-12-18T05:48:31;26.58;;;17.17;;
48596;SDS011;34382;43.160;24.148;2022-12-18T05:50:04;27.90;;;18.15;;
48596;SDS011;34382;43.160;24.148;2022-12-18T05:51:36;29.50;;;17.67;;
48596;SDS011;34382;43.160;24.148;2022-12-18T05:53:09;31.02;;;19.10;;
48596;SDS011;34382;43.160;24.148;2022-12-18T05:54:42;28.17;;;18.07;;
48596;SDS011;34382;43.160;24.148;2022-12-18T05:56:15;28.83;;;18.15;;
48596;SDS011;34382;43.160;24.148;2022-12-18T05:57:48;28.30;;;17.80;;
48596;SDS011;34382;43.160;24.148;2022-12-18T05:59:20;27.38;;;16.85;;
48596;SDS011;34382;43.160;24.148;2022-12-18T06:00:52;27.10;;;16.98;;
48596;SDS011;34382;43.160;24.148;2022-12-18T06:02:24;26.85;;;16.33;;
48596;SDS011;34382;43.160;24.148;2022-12-18T06:03:56;27.27;;;16.67;;
48596;SDS011;34382;43.160;24.148;2022-12-18T06:05:28;25.75;;;15.77;;
48596;SDS011;34382;43.160;24.148;2022-12-18T06:07:04;24.20;;;14.40;;
48596;SDS011;34382;43.160;24.148;2022-12-18T06:08:36;25.85;;;14.45;;
48596;SDS011;34382;43.160;24.148;2022-12-18T06:10:16;23.05;;;13.75;;
48596;SDS011;34382;43.160;24.148;2022-12-18T06:11:48;23.15;;;14.07;;
48596;SDS011;34382;43.160;24.148;2022-12-18T06:13:20;25.25;;;14.45;;
48596;SDS011;34382;43.160;24.148;2022-12-18T06:14:52;24.08;;;14.10;;
48596;SDS011;34382;43.160;24.148;2022-12-18T06:16:27;25.60;;;14.48;;
48596;SDS011;34382;43.160;24.148;2022-12-18T06:21:04;22.73;;;13.27;;
48596;SDS011;34382;43.160;24.148;2022-12-18T06:22:37;20.30;;;13.30;;
48596;SDS011;34382;43.160;24.148;2022-12-18T06:24:09;25.27;;;13.68;;
48596;SDS011;34382;43.160;24.148;2022-12-18T06:25:41;22.65;;;13.68;;
48596;SDS011;34382;43.160;24.148;2022-12-18T06:27:13;24.40;;;14.85;;
48596;SDS011;34382;43.160;24.148;2022-12-18T06:28:45;32.03;;;18.42;;
48596;SDS011;34382;43.160;24.148;2022-12-18T06:30:18;32.45;;;19.45;;
48596;SDS011;34382;43.160;24.148;2022-12-18T06:31:50;40.95;;;27.75;;
48596;SDS011;34382;43.160;24.148;2022-12-18T06:33:25;35.40;;;21.40;;
48596;SDS011;34382;43.160;24.148;2022-12-18T06:34:58;27.60;;;17.90;;
48596;SDS011;34382;43.160;24.148;2022-12-18T06:36:30;26.83;;;14.93;;
48596;SDS011;34382;43.160;24.148;2022-12-18T06:38:03;27.80;;;15.98;;
48596;SDS011;34382;43.160;24.148;2022-12-18T06:39:35;26.40;;;15.68;;
48596;SDS011;34382;43.160;24.148;2022-12-18T06:41:08;24.83;;;15.68;;
48596;SDS011;34382;43.160;24.148;2022-12-18T06:42:50;23.67;;;14.55;;
48596;SDS011;34382;43.160;24.148;2022-12-18T06:44:23;23.95;;;13.82;;
48596;SDS011;34382;43.160;24.148;2022-12-18T06:45:59;23.60;;;14.95;;
48596;SDS011;34382;43.160;24.148;2022-12-18T06:47:31;25.35;;;14.38;;
48596;SDS011;34382;43.160;24.148;2022-12-18T06:49:03;21.65;;;13.18;;
48596;SDS011;34382;43.160;24.148;2022-12-18T06:50:35;22.15;;;13.20;;
48596;SDS011;34382;43.160;24.148;2022-12-18T06:52:07;25.45;;;14.90;;
48596;SDS011;34382;43.160;24.148;2022-12-18T06:55:18;30.25;;;19.15;;
48596;SDS011;34382;43.160;24.148;2022-12-18T06:56:50;34.28;;;20.65;;
48596;SDS011;34382;43.160;24.148;2022-12-18T06:58:22;25.80;;;17.23;;
48596;SDS011;34382;43.160;24.148;2022-12-18T06:59:54;29.75;;;19.13;;
48596;SDS011;34382;43.160;24.148;2022-12-18T07:01:26;29.30;;;18.42;;
48596;SDS011;34382;43.160;24.148;2022-12-18T07:02:59;24.65;;;15.02;;
48596;SDS011;34382;43.160;24.148;2022-12-18T07:04:31;25.70;;;15.18;;
48596;SDS011;34382;43.160;24.148;2022-12-18T07:06:03;24.58;;;14.70;;
48596;SDS011;34382;43.160;24.148;2022-12-18T07:07:36;27.95;;;16.10;;
48596;SDS011;34382;43.160;24.148;2022-12-18T07:09:08;27.77;;;18.10;;
48596;SDS011;34382;43.160;24.148;2022-12-18T07:10:41;30.88;;;19.17;;
48596;SDS011;34382;43.160;24.148;2022-12-18T07:12:19;28.30;;;18.20;;
48596;SDS011;34382;43.160;24.148;2022-12-18T07:13:51;29.70;;;17.38;;
48596;SDS011;34382;43.160;24.148;2022-12-18T07:15:24;27.63;;;17.50;;
48596;SDS011;34382;43.160;24.148;2022-12-18T07:16:56;26.02;;;15.90;;
48596;SDS011;34382;43.160;24.148;2022-12-18T07:18:28;24.90;;;17.02;;
48596;SDS011;34382;43.160;24.148;2022-12-18T07:20:00;27.35;;;17.77;;
48596;SDS011;34382;43.160;24.148;2022-12-18T07:21:32;33.85;;;21.05;;
48596;SDS011;34382;43.160;24.148;2022-12-18T07:23:04;35.30;;;22.30;;
48596;SDS011;34382;43.160;24.148;2022-12-18T07:24:36;42.92;;;25.30;;
48596;SDS011;34382;43.160;24.148;2022-12-18T07:26:10;33.83;;;22.42;;
48596;SDS011;34382;43.160;24.148;2022-12-18T07:27:43;29.02;;;17.33;;
48596;SDS011;34382;43.160;24.148;2022-12-18T07:29:15;24.10;;;14.38;;
48596;SDS011;34382;43.160;24.148;2022-12-18T07:30:47;26.27;;;16.35;;
48596;SDS011;34382;43.160;24.148;2022-12-18T07:32:19;25.23;;;16.30;;
48596;SDS011;34382;43.160;24.148;2022-12-18T07:33:52;24.52;;;14.30;;
48596;SDS011;34382;43.160;24.148;2022-12-18T07:35:24;23.73;;;14.50;;
48596;SDS011;34382;43.160;24.148;2022-12-18T07:36:57;25.90;;;15.20;;
48596;SDS011;34382;43.160;24.148;2022-12-18T07:38:29;23.25;;;14.80;;
48596;SDS011;34382;43.160;24.148;2022-12-18T07:40:02;26.17;;;16.25;;
48596;SDS011;34382;43.160;24.148;2022-12-18T07:41:34;26.35;;;16.33;;
48596;SDS011;34382;43.160;24.148;2022-12-18T07:43:06;27.60;;;16.42;;
48596;SDS011;34382;43.160;24.148;2022-12-18T07:44:38;24.25;;;15.68;;
48596;SDS011;34382;43.160;24.148;2022-12-18T07:46:11;24.98;;;15.27;;
48596;SDS011;34382;43.160;24.148;2022-12-18T07:47:45;22.90;;;14.00;;
48596;SDS011;34382;43.160;24.148;2022-12-18T07:49:17;24.50;;;14.88;;
48596;SDS011;34382;43.160;24.148;2022-12-18T07:50:49;25.70;;;14.82;;
48596;SDS011;34382;43.160;24.148;2022-12-18T07:52:21;24.67;;;14.68;;
48596;SDS011;34382;43.160;24.148;2022-12-18T07:53:56;25.10;;;14.95;;
48596;SDS011;34382;43.160;24.148;2022-12-18T07:55:31;25.20;;;14.55;;
48596;SDS011;34382;43.160;24.148;2022-12-18T07:57:23;22.20;;;13.93;;
48596;SDS011;34382;43.160;24.148;2022-12-18T07:59:15;21.13;;;13.93;;
48596;SDS011;34382;43.160;24.148;2022-12-18T08:00:47;24.85;;;14.70;;
48596;SDS011;34382;43.160;24.148;2022-12-18T08:02:20;23.65;;;14.27;;
48596;SDS011;34382;43.160;24.148;2022-12-18T08:03:52;20.05;;;13.35;;
48596;SDS011;34382;43.160;24.148;2022-12-18T08:05:24;23.63;;;14.38;;
48596;SDS011;34382;43.160;24.148;2022-12-18T08:06:56;22.25;;;13.50;;
48596;SDS011;34382;43.160;24.148;2022-12-18T08:08:31;21.92;;;13.75;;
48596;SDS011;34382;43.160;24.148;2022-12-18T08:10:04;20.08;;;13.05;;
48596;SDS011;34382;43.160;24.148;2022-12-18T08:11:37;22.60;;;12.77;;
48596;SDS011;34382;43.160;24.148;2022-12-18T08:13:10;20.98;;;12.82;;
48596;SDS011;34382;43.160;24.148;2022-12-18T08:14:42;21.17;;;13.43;;
48596;SDS011;34382;43.160;24.148;2022-12-18T08:16:14;19.48;;;12.38;;
48596;SDS011;34382;43.160;24.148;2022-12-18T08:17:46;19.88;;;11.98;;
48596;SDS011;34382;43.160;24.148;2022-12-18T08:19:18;19.08;;;12.68;;
48596;SDS011;34382;43.160;24.148;2022-12-18T08:20:50;23.02;;;12.85;;
48596;SDS011;34382;43.160;24.148;2022-12-18T08:22:25;20.92;;;12.65;;
48596;SDS011;34382;43.160;24.148;2022-12-18T08:23:58;20.45;;;13.25;;
48596;SDS011;34382;43.160;24.148;2022-12-18T08:25:31;20.33;;;11.63;;
48596;SDS011;34382;43.160;24.148;2022-12-18T08:27:03;19.98;;;12.55;;
48596;SDS011;34382;43.160;24.148;2022-12-18T08:30:27;20.23;;;12.60;;
48596;SDS011;34382;43.160;24.148;2022-12-18T08:31:59;19.73;;;11.73;;
48596;SDS011;34382;43.160;24.148;2022-12-18T08:33:31;22.88;;;12.20;;
48596;SDS011;34382;43.160;24.148;2022-12-18T08:35:04;17.10;;;11.13;;
48596;SDS011;34382;43.160;24.148;2022-12-18T08:36:36;16.85;;;9.70;;
48596;SDS011;34382;43.160;24.148;2022-12-18T08:38:08;16.63;;;8.45;;
48596;SDS011;34382;43.160;24.148;2022-12-18T08:39:40;17.13;;;9.10;;
48596;SDS011;34382;43.160;24.148;2022-12-18T08:41:14;20.00;;;10.00;;
48596;SDS011;34382;43.160;24.148;2022-12-18T08:42:46;15.10;;;9.07;;
48596;SDS011;34382;43.160;24.148;2022-12-18T08:44:37;16.40;;;8.88;;
48596;SDS011;34382;43.160;24.148;2022-12-18T08:46:09;12.07;;;7.38;;
48596;SDS011;34382;43.160;24.148;2022-12-18T08:47:41;11.05;;;5.90;;
48596;SDS011;34382;43.160;24.148;2022-12-18T08:49:13;11.98;;;6.78;;
48596;SDS011;34382;43.160;24.148;2022-12-18T08:50:58;14.98;;;7.50;;
48596;SDS011;34382;43.160;24.148;2022-12-18T08:52:31;10.48;;;5.38;;
48596;SDS011;34382;43.160;24.148;2022-12-18T08:54:04;10.60;;;5.18;;
48596;SDS011;34382;43.160;24.148;2022-12-18T08:55:37;10.10;;;5.00;;
48596;SDS011;34382;43.160;24.148;2022-12-18T08:57:09;10.55;;;5.10;;
48596;SDS011;34382;43.160;24.148;2022-12-18T08:58:41;10.98;;;5.38;;
48596;SDS011;34382;43.160;24.148;2022-12-18T09:00:13;10.90;;;4.97;;
48596;SDS011;34382;43.160;24.148;2022-12-18T09:01:47;12.15;;;5.40;;
48596;SDS011;34382;43.160;24.148;2022-12-18T09:03:20;11.85;;;5.63;;
48596;SDS011;34382;43.160;24.148;2022-12-18T09:04:54;10.82;;;5.60;;
48596;SDS011;34382;43.160;24.148;2022-12-18T09:06:28;11.07;;;6.18;;
48596;SDS011;34382;43.160;24.148;2022-12-18T09:08:00;9.07;;;4.63;;
48596;SDS011;34382;43.160;24.148;2022-12-18T09:09:32;8.82;;;4.85;;
48596;SDS011;34382;43.160;24.148;2022-12-18T09:11:04;9.20;;;4.65;;
48596;SDS011;34382;43.160;24.148;2022-12-18T09:12:36;11.23;;;5.43;;
48596;SDS011;34382;43.160;24.148;2022-12-18T09:14:09;10.82;;;6.63;;
48596;SDS011;34382;43.160;24.148;2022-12-18T09:15:46;9.73;;;5.47;;
48596;SDS011;34382;43.160;24.148;2022-12-18T09:17:19;9.73;;;5.13;;
48596;SDS011;34382;43.160;24.148;2022-12-18T09:18:52;10.63;;;5.35;;
48596;SDS011;34382;43.160;24.148;2022-12-18T09:20:30;12.68;;;5.20;;
48596;SDS011;34382;43.160;24.148;2022-12-18T09:22:02;12.70;;;5.35;;
48596;SDS011;34382;43.160;24.148;2022-12-18T09:23:35;11.18;;;4.90;;
48596;SDS011;34382;43.160;24.148;2022-12-18T09:25:07;12.50;;;5.72;;
48596;SDS011;34382;43.160;24.148;2022-12-18T09:26:39;11.50;;;5.43;;
48596;SDS011;34382;43.160;24.148;2022-12-18T09:28:14;11.00;;;6.07;;
48596;SDS011;34382;43.160;24.148;2022-12-18T09:29:48;8.63;;;4.63;;
48596;SDS011;34382;43.160;24.148;2022-12-18T09:31:20;9.23;;;4.78;;
48596;SDS011;34382;43.160;24.148;2022-12-18T09:32:53;10.27;;;4.20;;
48596;SDS011;34382;43.160;24.148;2022-12-18T09:34:26;10.85;;;4.75;;
48596;SDS011;34382;43.160;24.148;2022-12-18T09:36:00;10.57;;;4.60;;
48596;SDS011;34382;43.160;24.148;2022-12-18T09:37:33;9.88;;;4.50;;
48596;SDS011;34382;43.160;24.148;2022-12-18T09:39:05;9.48;;;4.97;;